createdAt,value
2018-07-19T00:01:30.827Z,6.43
2018-07-19T00:03:59.909Z,8.93
2018-07-19T00:06:28.921Z,6.53
2018-07-19T00:08:57.996Z,6.23
2018-07-19T00:11:27.072Z,11.10
2018-07-19T00:13:56.110Z,6.87
2018-07-19T00:16:25.192Z,5.83
2018-07-19T00:18:54.253Z,6.80
2018-07-19T00:21:23.368Z,6.73
2018-07-19T00:23:52.344Z,6.10
2018-07-19T00:26:21.371Z,8.30
2018-07-19T00:28:50.397Z,7.50
2018-07-19T00:31:19.429Z,5.07
2018-07-19T00:33:48.538Z,5.93
2018-07-19T00:36:17.681Z,4.93
2018-07-19T00:38:46.729Z,11.20
2018-07-19T00:41:15.796Z,6.87
2018-07-19T00:43:44.789Z,5.80
2018-07-19T00:46:13.820Z,6.57
2018-07-19T00:48:42.846Z,5.10
2018-07-19T00:51:11.881Z,8.30
2018-07-19T00:53:40.913Z,9.50
2018-07-19T00:56:09.981Z,11.10
2018-07-19T00:58:39.008Z,6.30
2018-07-19T01:01:08.101Z,11.83
2018-07-19T01:03:37.112Z,16.37
2018-07-19T01:06:06.190Z,6.07
2018-07-19T01:08:35.249Z,6.17
2018-07-19T01:11:04.340Z,12.60
2018-07-19T01:13:33.373Z,7.27
2018-07-19T01:16:02.406Z,5.10
2018-07-19T01:18:31.490Z,9.87
2018-07-19T01:21:00.580Z,6.07
2018-07-19T01:23:29.589Z,8.97
2018-07-19T01:25:58.627Z,5.40
2018-07-19T01:28:27.636Z,6.23
2018-07-19T01:30:56.798Z,9.30
2018-07-19T01:33:25.829Z,6.43
2018-07-19T01:35:54.868Z,8.17
2018-07-19T01:38:23.901Z,7.37
2018-07-19T01:40:52.890Z,13.87
2018-07-19T01:43:21.997Z,6.23
2018-07-19T01:45:51.007Z,7.37
2018-07-19T01:48:20.025Z,10.17
2018-07-19T01:50:49.056Z,5.80
2018-07-19T01:53:18.178Z,8.37
2018-07-19T01:55:47.193Z,17.50
2018-07-19T01:58:16.160Z,8.53
2018-07-19T02:00:45.173Z,7.37
2018-07-19T02:03:14.141Z,6.93
2018-07-19T02:05:43.220Z,6.40
2018-07-19T02:08:12.291Z,8.00
2018-07-19T02:10:41.268Z,12.00
2018-07-19T02:13:10.264Z,10.13
2018-07-19T02:15:39.231Z,6.37
2018-07-19T02:18:08.301Z,7.87
2018-07-19T02:20:37.288Z,10.23
2018-07-19T02:23:06.587Z,7.63
2018-07-19T02:25:35.669Z,9.30
2018-07-19T02:28:04.748Z,8.00
2018-07-19T02:30:33.741Z,6.47
2018-07-19T02:33:02.781Z,9.90
2018-07-19T02:35:31.745Z,7.47
2018-07-19T02:38:00.747Z,9.17
2018-07-19T02:40:29.888Z,6.63
2018-07-19T02:42:58.897Z,5.90
2018-07-19T02:45:27.900Z,13.17
2018-07-19T02:47:56.884Z,6.67
2018-07-19T02:50:25.933Z,14.83
2018-07-19T02:52:54.903Z,7.43
2018-07-19T02:55:23.868Z,7.00
2018-07-19T02:57:52.988Z,8.00
2018-07-19T03:00:22.082Z,5.60
2018-07-19T03:02:51.112Z,11.17
2018-07-19T03:05:20.205Z,7.30
2018-07-19T03:07:49.315Z,8.33
2018-07-19T03:10:18.333Z,5.80
2018-07-19T03:12:47.365Z,9.37
2018-07-19T03:15:16.510Z,5.33
2018-07-19T03:17:45.581Z,10.73
2018-07-19T03:20:14.559Z,10.20
2018-07-19T03:22:43.547Z,8.87
2018-07-19T03:25:12.581Z,8.17
2018-07-19T03:27:41.585Z,11.63
2018-07-19T03:30:10.552Z,5.10
2018-07-19T03:32:39.570Z,22.50
2018-07-19T03:35:08.622Z,18.67
2018-07-19T03:37:37.645Z,14.33
2018-07-19T03:40:06.683Z,7.83
2018-07-19T03:42:35.716Z,8.10
2018-07-19T03:45:04.830Z,18.03
2018-07-19T03:47:33.828Z,11.00
2018-07-19T03:50:02.948Z,15.63
2018-07-19T03:52:31.935Z,8.03
2018-07-19T03:55:00.923Z,8.80
2018-07-19T03:57:29.937Z,4.80
2018-07-19T03:59:58.945Z,11.90
2018-07-19T04:02:27.960Z,11.27
2018-07-19T04:04:56.916Z,7.20
2018-07-19T04:07:26.057Z,8.43
2018-07-19T04:09:55.037Z,11.60
2018-07-19T04:12:24.063Z,7.70
2018-07-19T04:14:53.377Z,8.57
2018-07-19T04:17:22.464Z,5.10
2018-07-19T04:19:51.524Z,4.53
2018-07-19T04:22:20.520Z,6.23
2018-07-19T04:24:50.551Z,5.77
2018-07-19T04:27:19.675Z,11.60
2018-07-19T04:29:48.652Z,10.60
2018-07-19T04:32:17.677Z,6.60
2018-07-19T04:34:46.767Z,6.97
2018-07-19T04:37:15.864Z,6.40
2018-07-19T04:39:44.935Z,4.80
2018-07-19T04:42:14.046Z,14.73
2018-07-19T04:44:43.054Z,6.90
2018-07-19T04:47:12.093Z,6.03
2018-07-19T04:49:41.165Z,3.70
2018-07-19T04:52:10.321Z,8.53
2018-07-19T04:54:39.454Z,4.53
2018-07-19T04:57:08.454Z,7.00
2018-07-19T04:59:37.492Z,7.70
2018-07-19T05:02:06.761Z,10.30
2018-07-19T05:04:35.824Z,11.63
2018-07-19T05:07:04.957Z,7.93
2018-07-19T05:09:34.040Z,13.47
2018-07-19T05:12:03.094Z,9.23
2018-07-19T05:14:32.204Z,9.17
2018-07-19T05:17:01.244Z,6.37
2018-07-19T05:19:30.336Z,5.93
2018-07-19T05:21:59.355Z,7.77
2018-07-19T05:24:28.515Z,6.77
2018-07-19T05:26:57.555Z,4.30
2018-07-19T05:29:26.693Z,4.70
2018-07-19T05:31:55.765Z,6.77
2018-07-19T05:34:24.782Z,3.63
2018-07-19T05:36:53.824Z,4.40
2018-07-19T05:39:22.804Z,6.73
2018-07-19T05:41:51.844Z,5.13
2018-07-19T05:44:20.892Z,10.10
2018-07-19T05:46:49.960Z,16.40
2018-07-19T05:49:19.053Z,11.83
2018-07-19T05:51:48.096Z,9.53
2018-07-19T05:54:17.115Z,6.93
2018-07-19T05:56:46.184Z,5.60
2018-07-19T05:59:15.232Z,5.27
2018-07-19T06:01:44.269Z,10.47
2018-07-19T06:04:13.424Z,9.13
2018-07-19T06:06:42.437Z,5.33
2018-07-19T06:09:12.143Z,5.80
2018-07-19T06:11:41.528Z,9.20
2018-07-19T06:14:10.540Z,4.13
2018-07-19T06:20:11.674Z,5.70
2018-07-19T06:22:40.713Z,10.93
2018-07-19T06:25:09.721Z,9.80
2018-07-19T06:27:38.816Z,9.00
2018-07-19T06:30:08.264Z,10.23
2018-07-19T06:32:37.429Z,9.90
2018-07-19T06:35:06.531Z,5.77
2018-07-19T06:37:35.569Z,13.40
2018-07-19T06:40:05.124Z,6.40
2018-07-19T06:42:34.148Z,7.10
2018-07-19T06:45:03.313Z,6.30
2018-07-19T06:47:32.369Z,5.57
2018-07-19T06:50:01.436Z,6.83
2018-07-19T06:52:30.420Z,6.27
2018-07-19T06:54:59.465Z,4.93
2018-07-19T06:57:28.542Z,5.00
2018-07-19T06:59:57.550Z,4.83
2018-07-19T07:02:26.690Z,5.17
2018-07-19T07:04:55.656Z,8.43
2018-07-19T07:07:24.636Z,11.10
2018-07-19T07:09:53.613Z,3.53
2018-07-19T07:12:22.604Z,11.10
2018-07-19T07:14:51.701Z,6.87
2018-07-19T07:17:20.669Z,4.87
2018-07-19T07:19:49.779Z,3.70
2018-07-19T07:22:18.774Z,7.63
2018-07-19T07:24:47.745Z,11.87
2018-07-19T07:27:16.772Z,3.30
2018-07-19T07:29:45.751Z,4.20
2018-07-19T07:32:14.859Z,3.77
2018-07-19T07:34:43.940Z,11.73
2018-07-19T07:37:13.038Z,6.43
2018-07-19T07:39:42.111Z,9.53
2018-07-19T07:42:11.170Z,4.60
2018-07-19T07:44:40.325Z,18.97
2018-07-19T07:47:09.307Z,3.23
2018-07-19T07:49:38.358Z,3.20
2018-07-19T07:52:07.356Z,3.63
2018-07-19T07:54:36.334Z,3.47
2018-07-19T07:57:05.344Z,7.87
2018-07-19T07:59:34.357Z,3.73
2018-07-19T08:02:03.460Z,4.97
2018-07-19T08:04:32.496Z,5.33
2018-07-19T08:07:01.465Z,4.97
2018-07-19T08:09:30.444Z,3.60
2018-07-19T08:11:59.529Z,10.40
2018-07-19T08:14:28.503Z,4.50
2018-07-19T08:16:57.521Z,9.00
2018-07-19T08:19:26.619Z,5.70
2018-07-19T08:21:55.786Z,5.10
2018-07-19T08:24:24.803Z,4.63
2018-07-19T08:26:53.808Z,5.23
2018-07-19T08:29:22.830Z,2.90
2018-07-19T08:31:51.904Z,2.63
2018-07-19T08:34:20.876Z,2.40
2018-07-19T08:36:50.009Z,3.03
2018-07-19T08:39:18.989Z,2.60
2018-07-19T08:41:47.980Z,3.17
2018-07-19T08:44:17.033Z,3.77
2018-07-19T08:46:46.089Z,3.10
2018-07-19T08:49:15.501Z,4.70
2018-07-19T08:51:44.525Z,7.50
2018-07-19T08:54:13.522Z,2.70
2018-07-19T08:56:42.597Z,2.60
2018-07-19T08:59:11.579Z,3.10
2018-07-19T09:01:40.580Z,3.80
2018-07-19T09:04:09.656Z,4.60
2018-07-19T09:06:38.627Z,5.70
2018-07-19T09:09:09.149Z,6.50
2018-07-19T09:11:38.325Z,6.80
2018-07-19T09:14:07.403Z,3.67
2018-07-19T09:16:36.396Z,4.43
2018-07-19T09:19:05.424Z,2.70
2018-07-19T09:21:34.409Z,4.27
2018-07-19T09:24:03.453Z,4.67
2018-07-19T09:26:32.585Z,8.40
2018-07-19T09:29:01.512Z,4.50
2018-07-19T09:31:30.613Z,6.90
2018-07-19T09:33:59.685Z,2.70
2018-07-19T09:36:28.762Z,4.90
2018-07-19T09:38:57.796Z,4.63
2018-07-19T09:41:26.799Z,4.13
2018-07-19T09:43:55.980Z,3.63
2018-07-19T09:46:25.003Z,8.80
2018-07-19T09:48:54.044Z,2.93
2018-07-19T09:51:23.020Z,3.13
2018-07-19T09:53:52.112Z,6.37
2018-07-19T09:56:21.168Z,2.50
2018-07-19T09:58:50.120Z,8.53
2018-07-19T10:01:19.782Z,2.30
2018-07-19T10:03:50.191Z,2.13
2018-07-19T10:06:19.223Z,3.77
2018-07-19T10:08:48.237Z,1.60
2018-07-19T10:11:17.309Z,4.17
2018-07-19T10:13:46.832Z,6.13
2018-07-19T10:16:15.879Z,2.70
2018-07-19T10:18:45.074Z,2.73
2018-07-19T10:21:14.116Z,2.00
2018-07-19T10:23:43.221Z,8.93
2018-07-19T10:26:12.297Z,6.77
2018-07-19T10:28:41.478Z,2.13
2018-07-19T10:31:10.463Z,2.00
2018-07-19T10:33:39.573Z,3.60
2018-07-19T10:36:08.540Z,1.70
2018-07-19T10:38:37.565Z,1.50
2018-07-19T10:41:06.572Z,1.57
2018-07-19T10:43:35.561Z,1.87
2018-07-19T10:46:04.671Z,2.03
2018-07-19T10:48:33.704Z,2.67
2018-07-19T10:51:02.693Z,2.00
2018-07-19T10:53:31.713Z,2.40
2018-07-19T10:56:00.802Z,3.47
2018-07-19T10:58:29.833Z,1.90
2018-07-19T11:00:58.842Z,1.40
2018-07-19T11:03:27.837Z,3.03
2018-07-19T11:05:56.866Z,5.30
2018-07-19T11:08:25.949Z,1.80
2018-07-19T11:10:54.943Z,1.60
2018-07-19T11:13:24.004Z,1.73
2018-07-19T11:15:52.976Z,1.70
2018-07-19T11:18:22.041Z,1.40
2018-07-19T11:20:51.047Z,2.30
2018-07-19T11:23:20.130Z,2.33
2018-07-19T11:25:49.118Z,1.80
2018-07-19T11:28:18.091Z,4.63
2018-07-19T11:30:47.169Z,2.83
2018-07-19T11:33:16.192Z,2.00
2018-07-19T11:35:45.268Z,2.70
2018-07-19T11:38:14.342Z,1.77
2018-07-19T11:40:43.405Z,3.63
2018-07-19T11:43:12.380Z,6.90
2018-07-19T11:45:41.336Z,2.40
2018-07-19T11:48:10.304Z,3.67
2018-07-19T11:50:39.324Z,2.27
2018-07-19T11:53:08.365Z,6.63
2018-07-19T11:55:37.344Z,2.73
2018-07-19T11:58:06.469Z,7.03
2018-07-19T12:00:35.516Z,1.87
2018-07-19T12:03:04.573Z,2.40
2018-07-19T12:05:33.589Z,1.77
2018-07-19T12:08:02.543Z,2.30
2018-07-19T12:10:31.518Z,2.47
2018-07-19T12:13:00.481Z,2.50
2018-07-19T12:15:29.457Z,9.57
2018-07-19T12:17:58.405Z,2.77
2018-07-19T12:20:27.439Z,2.97
2018-07-19T12:22:56.408Z,5.20
2018-07-19T12:25:25.677Z,3.13
2018-07-19T12:27:54.796Z,2.10
2018-07-19T12:30:23.861Z,5.30
2018-07-19T12:32:52.832Z,3.43
2018-07-19T12:35:21.780Z,3.70
2018-07-19T12:37:50.869Z,3.33
2018-07-19T12:40:19.939Z,2.50
2018-07-19T12:42:48.974Z,2.13
2018-07-19T12:45:17.977Z,2.43
2018-07-19T12:47:47.201Z,1.80
2018-07-19T12:50:16.274Z,1.90
2018-07-19T12:52:45.240Z,4.67
2018-07-19T12:55:14.228Z,2.00
2018-07-19T12:57:43.336Z,2.40
2018-07-19T13:00:12.408Z,2.73
2018-07-19T13:02:41.409Z,3.43
2018-07-19T13:05:10.491Z,3.60
2018-07-19T13:07:39.521Z,2.40
2018-07-19T13:10:08.520Z,1.90
2018-07-19T13:12:37.513Z,2.30
2018-07-19T13:15:07.228Z,3.00
2018-07-19T13:17:36.320Z,3.70
2018-07-19T13:20:05.688Z,2.67
2018-07-19T13:22:34.661Z,2.00
2018-07-19T13:25:03.699Z,2.80
2018-07-19T13:27:32.755Z,5.03
2018-07-19T13:30:01.769Z,3.00
2018-07-19T13:32:30.776Z,3.27
2018-07-19T13:34:59.805Z,2.30
2018-07-19T13:37:28.825Z,2.77
2018-07-19T13:39:57.800Z,6.80
2018-07-19T13:42:26.749Z,2.60
2018-07-19T13:44:55.812Z,5.00
2018-07-19T13:47:24.821Z,3.97
2018-07-19T13:49:53.786Z,7.97
2018-07-19T13:52:33.632Z,3.77
2018-07-19T13:55:02.656Z,5.80
2018-07-19T13:57:31.716Z,4.63
2018-07-19T14:00:00.752Z,5.43
2018-07-19T14:02:29.868Z,4.83
2018-07-19T14:04:58.829Z,4.50
2018-07-19T14:07:27.975Z,5.27
2018-07-19T14:09:56.989Z,5.47
2018-07-19T14:12:26.078Z,6.30
2018-07-19T14:14:55.033Z,4.63
2018-07-19T14:17:23.969Z,3.93
2018-07-19T14:19:53.092Z,6.37
2018-07-19T14:22:22.053Z,5.50
2018-07-19T14:24:51.017Z,7.97
2018-07-19T14:27:19.969Z,4.93
2018-07-19T14:29:48.928Z,5.40
2018-07-19T14:32:17.959Z,6.20
2018-07-19T14:34:46.964Z,4.60
2018-07-19T14:37:15.992Z,6.30
2018-07-19T14:39:45.020Z,4.77
2018-07-19T14:42:13.993Z,6.27
2018-07-19T14:44:43.036Z,9.40
2018-07-19T14:47:12.000Z,7.50
2018-07-19T14:49:41.061Z,25.40
2018-07-19T14:52:10.077Z,10.10
2018-07-19T14:54:39.108Z,15.73
2018-07-19T14:57:08.206Z,11.10
2018-07-19T14:59:37.292Z,13.30
2018-07-19T15:02:06.317Z,9.50
2018-07-19T15:04:35.433Z,6.30
2018-07-19T15:07:04.461Z,13.13
2018-07-19T15:09:33.488Z,7.47
2018-07-19T15:12:02.485Z,4.53
2018-07-19T15:14:31.479Z,7.17
2018-07-19T15:17:00.509Z,8.77
2018-07-19T15:19:29.529Z,5.33
2018-07-19T15:21:58.670Z,4.17
2018-07-19T15:24:27.693Z,6.00
2018-07-19T15:26:56.674Z,6.50
2018-07-19T15:29:25.714Z,4.83
2018-07-19T15:31:54.665Z,5.37
2018-07-19T15:34:23.710Z,6.60
2018-07-19T15:36:52.773Z,6.17
2018-07-19T15:39:21.797Z,9.23
2018-07-19T15:41:50.777Z,7.90
2018-07-19T15:44:19.896Z,12.70
2018-07-19T15:46:48.859Z,6.23
2018-07-19T15:49:17.792Z,8.93
2018-07-19T15:51:46.957Z,5.00
2018-07-19T15:54:15.908Z,11.50
2018-07-19T15:56:44.876Z,6.20
2018-07-19T15:59:13.829Z,5.00
2018-07-19T16:01:42.796Z,9.07
2018-07-19T16:04:12.122Z,14.33
2018-07-19T16:06:41.195Z,8.40
2018-07-19T16:09:11.913Z,13.80
2018-07-19T16:11:41.065Z,12.43
2018-07-19T16:14:10.032Z,9.00
2018-07-19T16:16:38.975Z,7.93
2018-07-19T16:19:08.073Z,5.40
2018-07-19T16:21:37.105Z,5.50
2018-07-19T16:24:06.124Z,7.00
2018-07-19T16:26:35.193Z,12.00
2018-07-19T16:29:04.225Z,5.83
2018-07-19T16:31:33.168Z,8.90
2018-07-19T16:34:02.137Z,18.33
2018-07-19T16:36:31.111Z,13.43
2018-07-19T16:39:00.191Z,10.47
2018-07-19T16:41:29.301Z,10.70
2018-07-19T16:43:58.257Z,8.83
2018-07-19T16:46:27.235Z,13.10
2018-07-19T16:48:56.219Z,8.00
2018-07-19T16:51:25.354Z,6.77
2018-07-19T16:53:54.305Z,11.07
2018-07-19T16:56:23.324Z,8.07
2018-07-19T16:58:52.295Z,10.20
2018-07-19T17:01:21.332Z,5.70
2018-07-19T17:03:50.364Z,6.10
2018-07-19T17:06:19.432Z,12.57
2018-07-19T17:08:49.487Z,9.07
2018-07-19T17:11:18.467Z,9.77
2018-07-19T17:13:47.480Z,7.70
2018-07-19T17:16:16.653Z,8.53
2018-07-19T17:18:45.722Z,10.30
2018-07-19T17:21:14.798Z,5.63
2018-07-19T17:23:43.746Z,9.13
2018-07-19T17:26:12.775Z,5.20
2018-07-19T17:28:41.845Z,11.23
2018-07-19T17:31:10.957Z,5.73
2018-07-19T17:33:39.960Z,7.00
2018-07-19T17:36:09.052Z,9.67
2018-07-19T17:38:38.075Z,7.37
2018-07-19T17:41:07.349Z,8.00
2018-07-19T17:43:36.397Z,5.77
2018-07-19T17:46:05.464Z,8.03
2018-07-19T17:48:34.428Z,7.87
2018-07-19T17:51:06.365Z,6.10
2018-07-19T17:53:36.258Z,11.00
2018-07-19T17:56:05.275Z,10.33
2018-07-19T17:58:36.758Z,5.90
2018-07-19T18:01:05.912Z,5.67
2018-07-19T18:03:35.701Z,12.23
2018-07-19T18:06:04.720Z,9.50
2018-07-19T18:08:34.020Z,9.07
2018-07-19T18:11:03.076Z,9.10
2018-07-19T18:13:32.155Z,7.83
2018-07-19T18:16:01.210Z,16.13
2018-07-19T18:18:30.385Z,12.50
2018-07-19T18:20:59.465Z,14.67
2018-07-19T18:23:28.512Z,25.10
2018-07-19T18:25:57.551Z,16.50
2018-07-19T18:28:26.528Z,8.53
2018-07-19T18:30:55.577Z,8.83
2018-07-19T18:33:24.630Z,11.10
2018-07-19T18:35:53.661Z,12.60
2018-07-19T18:38:24.196Z,8.33
2018-07-19T18:40:53.190Z,17.20
2018-07-19T18:43:22.869Z,11.50
2018-07-19T18:45:51.904Z,13.03
2018-07-19T18:48:20.900Z,12.77
2018-07-19T18:50:50.141Z,12.40
2018-07-19T18:53:19.152Z,14.97
2018-07-19T18:55:48.262Z,13.70
2018-07-19T18:58:17.308Z,20.40
2018-07-19T19:00:46.323Z,13.13
2018-07-19T19:03:15.288Z,13.43
2018-07-19T19:05:44.360Z,9.13
2018-07-19T19:08:13.345Z,13.07
2018-07-19T19:10:42.300Z,17.40
2018-07-19T19:13:17.822Z,14.53
2018-07-19T19:15:46.984Z,10.40
2018-07-19T19:18:15.979Z,7.70
2018-07-19T19:20:44.956Z,11.90
2018-07-19T19:23:13.948Z,10.17
2018-07-19T19:25:43.010Z,10.40
2018-07-19T19:28:12.121Z,10.70
2018-07-19T19:30:41.102Z,11.27
2018-07-19T19:33:10.139Z,9.20
2018-07-19T19:35:39.176Z,13.93
2018-07-19T19:38:08.203Z,11.30
2018-07-19T19:40:37.253Z,8.70
2018-07-19T19:43:06.457Z,11.13
2018-07-19T19:45:35.617Z,10.53
2018-07-19T19:48:04.645Z,14.27
2018-07-19T19:50:33.689Z,12.87
2018-07-19T19:53:02.768Z,15.00
2018-07-19T19:55:31.753Z,11.53
2018-07-19T19:58:00.732Z,13.40
2018-07-19T20:00:29.774Z,13.77
2018-07-19T20:02:58.914Z,20.17
2018-07-19T20:05:27.974Z,22.90
2018-07-19T20:07:57.131Z,15.63
2018-07-19T20:10:26.161Z,12.87
2018-07-19T20:12:55.204Z,11.03
2018-07-19T20:15:24.205Z,15.77
2018-07-19T20:17:53.230Z,17.23
2018-07-19T20:20:22.225Z,18.83
2018-07-19T20:22:51.303Z,13.20
2018-07-19T20:25:20.376Z,16.80
2018-07-19T20:27:49.392Z,25.70
2018-07-19T20:30:18.429Z,15.67
2018-07-19T20:32:47.412Z,20.90
2018-07-19T20:35:16.441Z,20.47
2018-07-19T20:37:45.476Z,14.57
2018-07-19T20:40:14.469Z,14.30
2018-07-19T20:42:43.462Z,15.70
2018-07-19T20:45:12.424Z,18.03
2018-07-19T20:47:41.452Z,29.13
2018-07-19T20:50:10.456Z,20.93
2018-07-19T20:52:39.544Z,28.37
2018-07-19T20:55:09.140Z,29.97
2018-07-19T20:57:38.696Z,32.70
2018-07-19T21:00:08.077Z,29.17
2018-07-19T21:02:37.085Z,22.93
2018-07-19T21:05:06.201Z,24.03
2018-07-19T21:07:35.240Z,16.30
2018-07-19T21:10:04.343Z,20.03
2018-07-19T21:12:33.263Z,16.70
2018-07-19T21:15:02.272Z,18.03
2018-07-19T21:17:31.316Z,17.83
2018-07-19T21:20:00.309Z,18.90
2018-07-19T21:22:29.336Z,18.93
2018-07-19T21:24:58.352Z,17.70
2018-07-19T21:27:27.312Z,17.87
2018-07-19T21:29:56.268Z,14.70
2018-07-19T21:32:25.227Z,18.20
2018-07-19T21:34:54.281Z,14.37
2018-07-19T21:37:23.349Z,19.03
2018-07-19T21:39:52.492Z,23.43
2018-07-19T21:42:21.443Z,16.23
2018-07-19T21:44:50.464Z,14.43
2018-07-19T21:47:19.472Z,14.77
2018-07-19T21:49:48.439Z,17.30
2018-07-19T21:52:17.552Z,16.27
2018-07-19T21:54:46.581Z,14.23
2018-07-19T21:57:15.539Z,16.90
2018-07-19T21:59:44.608Z,15.00
2018-07-19T22:02:15.041Z,17.40
2018-07-19T22:04:44.236Z,18.30
2018-07-19T22:07:13.296Z,17.53
2018-07-19T22:09:42.479Z,16.57
2018-07-19T22:12:11.437Z,17.43
2018-07-19T22:14:40.400Z,16.10
2018-07-19T22:17:09.358Z,20.37
2018-07-19T22:19:38.458Z,14.97
2018-07-19T22:22:07.470Z,16.23
2018-07-19T22:24:36.447Z,14.00
2018-07-19T22:27:05.416Z,18.77
2018-07-19T22:29:34.382Z,14.00
2018-07-19T22:32:03.324Z,13.63
2018-07-19T22:34:32.387Z,14.30
2018-07-19T22:37:01.337Z,14.13
2018-07-19T22:39:30.397Z,14.00
2018-07-19T22:41:59.462Z,11.03
2018-07-19T22:44:28.421Z,13.33
2018-07-19T22:46:57.461Z,12.63
2018-07-19T22:49:26.416Z,12.53
2018-07-19T22:51:55.475Z,19.17
2018-07-19T22:54:24.573Z,14.83
2018-07-19T22:56:53.710Z,13.90
2018-07-19T22:59:22.674Z,13.23
2018-07-19T23:01:51.697Z,12.30
2018-07-19T23:04:20.748Z,13.87
2018-07-19T23:06:49.781Z,12.67
2018-07-19T23:09:18.921Z,11.80
2018-07-19T23:11:47.959Z,12.63
2018-07-19T23:14:17.000Z,14.20
2018-07-19T23:16:46.074Z,19.83
2018-07-19T23:19:15.107Z,15.73
2018-07-19T23:21:44.174Z,16.20
2018-07-19T23:24:13.139Z,13.30
2018-07-19T23:26:42.221Z,13.73
2018-07-19T23:29:11.390Z,18.90
2018-07-19T23:31:40.474Z,14.60
2018-07-19T23:34:09.532Z,16.20
2018-07-19T23:36:56.448Z,15.47
2018-07-19T23:39:30.096Z,15.50
2018-07-19T23:42:06.473Z,17.83
2018-07-19T23:44:43.741Z,18.23
2018-07-19T23:47:16.812Z,15.77
2018-07-19T23:49:45.849Z,25.03
2018-07-19T23:52:14.876Z,16.23
2018-07-19T23:54:43.823Z,17.53
2018-07-19T23:57:12.786Z,15.83
2018-07-19T23:59:41.819Z,16.20
